sensor_id;sensor_type;location;lat;lon;timestamp;temperature;humidity
26641;DHT22;14269;47.358;0.724;2023-02-22T00:02:10;12.0;68.0
26641;DHT22;14269;47.358;0.724;2023-02-22T00:04:52;12.0;68.0
26641;DHT22;14269;47.358;0.724;2023-02-22T00:07:23;12.0;69.0
26641;DHT22;14269;47.358;0.724;2023-02-22T00:09:55;12.0;69.0
26641;DHT22;14269;47.358;0.724;2023-02-22T00:12:28;12.0;69.0
26641;DHT22;14269;47.358;0.724;2023-02-22T00:15:09;12.0;70.0
26641;DHT22;14269;47.358;0.724;2023-02-22T00:17:50;12.0;70.0
26641;DHT22;14269;47.358;0.724;2023-02-22T00:20:24;12.0;70.0
26641;DHT22;14269;47.358;0.724;2023-02-22T00:23:06;12.0;72.0
26641;DHT22;14269;47.358;0.724;2023-02-22T00:25:46;12.0;72.0
26641;DHT22;14269;47.358;0.724;2023-02-22T00:28:27;12.0;72.0
26641;DHT22;14269;47.358;0.724;2023-02-22T00:31:09;12.0;72.0
26641;DHT22;14269;47.358;0.724;2023-02-22T00:33:41;12.0;72.0
26641;DHT22;14269;47.358;0.724;2023-02-22T00:36:13;12.0;71.0
26641;DHT22;14269;47.358;0.724;2023-02-22T00:38:44;12.0;71.0
26641;DHT22;14269;47.358;0.724;2023-02-22T00:41:15;12.0;71.0
26641;DHT22;14269;47.358;0.724;2023-02-22T00:43:47;12.0;71.0
26641;DHT22;14269;47.358;0.724;2023-02-22T00:46:18;12.0;71.0
26641;DHT22;14269;47.358;0.724;2023-02-22T00:48:50;12.0;72.0
26641;DHT22;14269;47.358;0.724;2023-02-22T00:51:24;13.0;71.0
26641;DHT22;14269;47.358;0.724;2023-02-22T00:54:04;13.0;71.0
26641;DHT22;14269;47.358;0.724;2023-02-22T00:56:36;13.0;71.0
26641;DHT22;14269;47.358;0.724;2023-02-22T00:59:07;12.0;71.0
26641;DHT22;14269;47.358;0.724;2023-02-22T01:01:38;12.0;72.0
26641;DHT22;14269;47.358;0.724;2023-02-22T01:04:10;12.0;72.0
26641;DHT22;14269;47.358;0.724;2023-02-22T01:06:42;12.0;72.0
26641;DHT22;14269;47.358;0.724;2023-02-22T01:09:13;12.0;73.0
26641;DHT22;14269;47.358;0.724;2023-02-22T01:11:46;12.0;73.0
26641;DHT22;14269;47.358;0.724;2023-02-22T01:14:27;12.0;73.0
26641;DHT22;14269;47.358;0.724;2023-02-22T01:16:58;12.0;73.0
26641;DHT22;14269;47.358;0.724;2023-02-22T01:19:31;12.0;74.0
26641;DHT22;14269;47.358;0.724;2023-02-22T01:22:04;12.0;74.0
26641;DHT22;14269;47.358;0.724;2023-02-22T01:24:43;12.0;74.0
26641;DHT22;14269;47.358;0.724;2023-02-22T01:27:17;12.0;74.0
26641;DHT22;14269;47.358;0.724;2023-02-22T01:29:57;12.0;74.0
26641;DHT22;14269;47.358;0.724;2023-02-22T01:32:29;12.0;74.0
26641;DHT22;14269;47.358;0.724;2023-02-22T01:35:05;12.0;75.0
26641;DHT22;14269;47.358;0.724;2023-02-22T01:37:42;12.0;74.0
26641;DHT22;14269;47.358;0.724;2023-02-22T01:40:17;12.0;75.0
26641;DHT22;14269;47.358;0.724;2023-02-22T01:42:58;12.0;75.0
26641;DHT22;14269;47.358;0.724;2023-02-22T01:45:44;12.0;74.0
26641;DHT22;14269;47.358;0.724;2023-02-22T01:48:26;12.0;75.0
26641;DHT22;14269;47.358;0.724;2023-02-22T01:51:04;12.0;75.0
26641;DHT22;14269;47.358;0.724;2023-02-22T01:53:47;12.0;75.0
26641;DHT22;14269;47.358;0.724;2023-02-22T01:56:26;12.0;75.0
26641;DHT22;14269;47.358;0.724;2023-02-22T01:59:08;12.0;75.0
26641;DHT22;14269;47.358;0.724;2023-02-22T02:01:48;12.0;75.0
26641;DHT22;14269;47.358;0.724;2023-02-22T02:04:24;12.0;75.0
26641;DHT22;14269;47.358;0.724;2023-02-22T02:07:04;12.0;75.0
26641;DHT22;14269;47.358;0.724;2023-02-22T02:09:46;12.0;75.0
26641;DHT22;14269;47.358;0.724;2023-02-22T02:12:26;12.0;75.0
26641;DHT22;14269;47.358;0.724;2023-02-22T02:15:24;12.0;75.0
26641;DHT22;14269;47.358;0.724;2023-02-22T02:18:01;12.0;75.0
26641;DHT22;14269;47.358;0.724;2023-02-22T02:20:47;12.0;75.0
26641;DHT22;14269;47.358;0.724;2023-02-22T02:23:49;12.0;75.0
26641;DHT22;14269;47.358;0.724;2023-02-22T02:26:49;12.0;75.0
26641;DHT22;14269;47.358;0.724;2023-02-22T02:29:53;12.0;75.0
26641;DHT22;14269;47.358;0.724;2023-02-22T02:32:47;12.0;75.0
26641;DHT22;14269;47.358;0.724;2023-02-22T02:35:38;12.0;75.0
26641;DHT22;14269;47.358;0.724;2023-02-22T02:38:29;12.0;75.0
26641;DHT22;14269;47.358;0.724;2023-02-22T02:41:07;12.0;75.0
26641;DHT22;14269;47.358;0.724;2023-02-22T02:43:52;12.0;75.0
26641;DHT22;14269;47.358;0.724;2023-02-22T02:46:32;12.0;75.0
26641;DHT22;14269;47.358;0.724;2023-02-22T02:49:11;12.0;75.0
26641;DHT22;14269;47.358;0.724;2023-02-22T02:51:53;12.0;75.0
26641;DHT22;14269;47.358;0.724;2023-02-22T02:54:33;12.0;75.0
26641;DHT22;14269;47.358;0.724;2023-02-22T02:57:14;12.0;76.0
26641;DHT22;14269;47.358;0.724;2023-02-22T02:59:46;12.0;76.0
26641;DHT22;14269;47.358;0.724;2023-02-22T03:02:29;12.0;76.0
26641;DHT22;14269;47.358;0.724;2023-02-22T03:05:18;12.0;75.0
26641;DHT22;14269;47.358;0.724;2023-02-22T03:08:07;12.0;75.0
26641;DHT22;14269;47.358;0.724;2023-02-22T03:10:51;12.0;75.0
26641;DHT22;14269;47.358;0.724;2023-02-22T03:13:41;12.0;75.0
26641;DHT22;14269;47.358;0.724;2023-02-22T03:16:21;12.0;75.0
26641;DHT22;14269;47.358;0.724;2023-02-22T03:19:05;12.0;75.0
26641;DHT22;14269;47.358;0.724;2023-02-22T03:21:44;13.0;75.0
26641;DHT22;14269;47.358;0.724;2023-02-22T03:24:26;13.0;75.0
26641;DHT22;14269;47.358;0.724;2023-02-22T03:27:09;13.0;75.0
26641;DHT22;14269;47.358;0.724;2023-02-22T03:29:46;13.0;75.0
26641;DHT22;14269;47.358;0.724;2023-02-22T03:32:29;13.0;75.0
26641;DHT22;14269;47.358;0.724;2023-02-22T03:35:12;12.0;75.0
26641;DHT22;14269;47.358;0.724;2023-02-22T03:37:54;12.0;75.0
26641;DHT22;14269;47.358;0.724;2023-02-22T03:40:34;12.0;75.0
26641;DHT22;14269;47.358;0.724;2023-02-22T03:43:16;12.0;75.0
26641;DHT22;14269;47.358;0.724;2023-02-22T03:45:56;12.0;75.0
26641;DHT22;14269;47.358;0.724;2023-02-22T03:48:44;12.0;75.0
26641;DHT22;14269;47.358;0.724;2023-02-22T03:51:19;12.0;76.0
26641;DHT22;14269;47.358;0.724;2023-02-22T03:53:51;12.0;76.0
26641;DHT22;14269;47.358;0.724;2023-02-22T03:56:40;12.0;75.0
26641;DHT22;14269;47.358;0.724;2023-02-22T03:59:26;12.0;75.0
26641;DHT22;14269;47.358;0.724;2023-02-22T04:02:06;12.0;76.0
26641;DHT22;14269;47.358;0.724;2023-02-22T04:04:38;12.0;76.0
26641;DHT22;14269;47.358;0.724;2023-02-22T04:07:09;12.0;76.0
26641;DHT22;14269;47.358;0.724;2023-02-22T04:09:41;12.0;76.0
26641;DHT22;14269;47.358;0.724;2023-02-22T04:12:13;12.0;76.0
26641;DHT22;14269;47.358;0.724;2023-02-22T04:14:44;12.0;76.0
26641;DHT22;14269;47.358;0.724;2023-02-22T04:17:16;12.0;77.0
26641;DHT22;14269;47.358;0.724;2023-02-22T04:19:47;12.0;76.0
26641;DHT22;14269;47.358;0.724;2023-02-22T04:22:19;12.0;77.0
26641;DHT22;14269;47.358;0.724;2023-02-22T04:24:52;12.0;76.0
26641;DHT22;14269;47.358;0.724;2023-02-22T04:27:33;12.0;77.0
26641;DHT22;14269;47.358;0.724;2023-02-22T04:30:05;12.0;77.0
26641;DHT22;14269;47.358;0.724;2023-02-22T04:32:36;12.0;77.0
26641;DHT22;14269;47.358;0.724;2023-02-22T04:35:08;12.0;76.0
26641;DHT22;14269;47.358;0.724;2023-02-22T04:37:39;12.0;76.0
26641;DHT22;14269;47.358;0.724;2023-02-22T04:40:11;12.0;76.0
26641;DHT22;14269;47.358;0.724;2023-02-22T04:42:42;12.0;76.0
26641;DHT22;14269;47.358;0.724;2023-02-22T04:45:14;12.0;76.0
26641;DHT22;14269;47.358;0.724;2023-02-22T04:47:46;12.0;76.0
26641;DHT22;14269;47.358;0.724;2023-02-22T04:50:18;12.0;76.0
26641;DHT22;14269;47.358;0.724;2023-02-22T04:52:49;12.0;76.0
26641;DHT22;14269;47.358;0.724;2023-02-22T04:55:21;12.0;76.0
26641;DHT22;14269;47.358;0.724;2023-02-22T04:57:52;12.0;76.0
26641;DHT22;14269;47.358;0.724;2023-02-22T05:00:24;12.0;76.0
26641;DHT22;14269;47.358;0.724;2023-02-22T05:02:56;12.0;76.0
26641;DHT22;14269;47.358;0.724;2023-02-22T05:05:27;12.0;75.0
26641;DHT22;14269;47.358;0.724;2023-02-22T05:07:59;12.0;75.0
26641;DHT22;14269;47.358;0.724;2023-02-22T05:10:30;12.0;75.0
26641;DHT22;14269;47.358;0.724;2023-02-22T05:13:02;12.0;75.0
26641;DHT22;14269;47.358;0.724;2023-02-22T05:15:34;12.0;75.0
26641;DHT22;14269;47.358;0.724;2023-02-22T05:18:05;12.0;75.0
26641;DHT22;14269;47.358;0.724;2023-02-22T05:20:37;12.0;76.0
26641;DHT22;14269;47.358;0.724;2023-02-22T05:23:09;12.0;76.0
26641;DHT22;14269;47.358;0.724;2023-02-22T05:25:40;12.0;76.0
26641;DHT22;14269;47.358;0.724;2023-02-22T05:28:14;12.0;76.0
26641;DHT22;14269;47.358;0.724;2023-02-22T05:30:54;12.0;76.0
26641;DHT22;14269;47.358;0.724;2023-02-22T05:33:25;12.0;75.0
26641;DHT22;14269;47.358;0.724;2023-02-22T05:35:57;12.0;76.0
26641;DHT22;14269;47.358;0.724;2023-02-22T05:38:29;12.0;76.0
26641;DHT22;14269;47.358;0.724;2023-02-22T05:41:00;12.0;76.0
26641;DHT22;14269;47.358;0.724;2023-02-22T05:43:32;12.0;76.0
26641;DHT22;14269;47.358;0.724;2023-02-22T05:46:04;12.0;75.0
26641;DHT22;14269;47.358;0.724;2023-02-22T05:48:35;12.0;76.0
26641;DHT22;14269;47.358;0.724;2023-02-22T05:51:09;12.0;76.0
26641;DHT22;14269;47.358;0.724;2023-02-22T05:53:51;12.0;76.0
26641;DHT22;14269;47.358;0.724;2023-02-22T05:56:31;12.0;76.0
26641;DHT22;14269;47.358;0.724;2023-02-22T05:59:02;12.0;75.0
26641;DHT22;14269;47.358;0.724;2023-02-22T06:01:34;12.0;75.0
26641;DHT22;14269;47.358;0.724;2023-02-22T06:04:05;12.0;75.0
26641;DHT22;14269;47.358;0.724;2023-02-22T06:06:37;12.0;75.0
26641;DHT22;14269;47.358;0.724;2023-02-22T06:09:09;12.0;76.0
26641;DHT22;14269;47.358;0.724;2023-02-22T06:11:40;11.0;76.0
26641;DHT22;14269;47.358;0.724;2023-02-22T06:14:12;11.0;76.0
26641;DHT22;14269;47.358;0.724;2023-02-22T06:16:51;11.0;76.0
26641;DHT22;14269;47.358;0.724;2023-02-22T06:19:26;12.0;76.0
26641;DHT22;14269;47.358;0.724;2023-02-22T06:21:58;12.0;75.0
26641;DHT22;14269;47.358;0.724;2023-02-22T06:24:39;12.0;76.0
26641;DHT22;14269;47.358;0.724;2023-02-22T06:27:10;12.0;75.0
26641;DHT22;14269;47.358;0.724;2023-02-22T06:29:44;12.0;75.0
26641;DHT22;14269;47.358;0.724;2023-02-22T06:32:24;12.0;75.0
26641;DHT22;14269;47.358;0.724;2023-02-22T06:34:55;12.0;75.0
26641;DHT22;14269;47.358;0.724;2023-02-22T06:37:27;12.0;75.0
26641;DHT22;14269;47.358;0.724;2023-02-22T06:39:59;12.0;75.0
26641;DHT22;14269;47.358;0.724;2023-02-22T06:42:31;12.0;75.0
26641;DHT22;14269;47.358;0.724;2023-02-22T06:45:03;12.0;75.0
26641;DHT22;14269;47.358;0.724;2023-02-22T06:47:37;12.0;75.0
26641;DHT22;14269;47.358;0.724;2023-02-22T06:50:19;12.0;75.0
26641;DHT22;14269;47.358;0.724;2023-02-22T06:52:58;12.0;75.0
26641;DHT22;14269;47.358;0.724;2023-02-22T06:55:31;12.0;75.0
26641;DHT22;14269;47.358;0.724;2023-02-22T06:58:11;11.0;76.0
26641;DHT22;14269;47.358;0.724;2023-02-22T07:00:42;12.0;76.0
26641;DHT22;14269;47.358;0.724;2023-02-22T07:03:15;12.0;76.0
26641;DHT22;14269;47.358;0.724;2023-02-22T07:05:56;12.0;76.0
26641;DHT22;14269;47.358;0.724;2023-02-22T07:08:27;12.0;75.0
26641;DHT22;14269;47.358;0.724;2023-02-22T07:10:59;12.0;75.0
26641;DHT22;14269;47.358;0.724;2023-02-22T07:13:31;12.0;75.0
26641;DHT22;14269;47.358;0.724;2023-02-22T07:16:03;12.0;75.0
26641;DHT22;14269;47.358;0.724;2023-02-22T07:18:34;12.0;75.0
26641;DHT22;14269;47.358;0.724;2023-02-22T07:21:06;12.0;76.0
26641;DHT22;14269;47.358;0.724;2023-02-22T07:23:37;12.0;76.0
26641;DHT22;14269;47.358;0.724;2023-02-22T07:26:09;12.0;76.0
26641;DHT22;14269;47.358;0.724;2023-02-22T07:28:40;12.0;76.0
26641;DHT22;14269;47.358;0.724;2023-02-22T07:31:12;12.0;76.0
26641;DHT22;14269;47.358;0.724;2023-02-22T07:33:45;12.0;76.0
26641;DHT22;14269;47.358;0.724;2023-02-22T07:36:16;12.0;75.0
26641;DHT22;14269;47.358;0.724;2023-02-22T07:38:57;12.0;75.0
26641;DHT22;14269;47.358;0.724;2023-02-22T07:41:29;12.0;76.0
26641;DHT22;14269;47.358;0.724;2023-02-22T07:44:01;12.0;76.0
26641;DHT22;14269;47.358;0.724;2023-02-22T07:46:33;12.0;76.0
26641;DHT22;14269;47.358;0.724;2023-02-22T07:49:04;12.0;77.0
26641;DHT22;14269;47.358;0.724;2023-02-22T07:51:35;12.0;77.0
26641;DHT22;14269;47.358;0.724;2023-02-22T07:54:08;12.0;77.0
26641;DHT22;14269;47.358;0.724;2023-02-22T07:56:43;11.0;77.0
26641;DHT22;14269;47.358;0.724;2023-02-22T07:59:20;12.0;77.0
26641;DHT22;14269;47.358;0.724;2023-02-22T08:01:52;12.0;77.0
26641;DHT22;14269;47.358;0.724;2023-02-22T08:04:24;12.0;77.0
26641;DHT22;14269;47.358;0.724;2023-02-22T08:06:55;12.0;77.0
26641;DHT22;14269;47.358;0.724;2023-02-22T08:09:27;12.0;77.0
26641;DHT22;14269;47.358;0.724;2023-02-22T08:11:59;11.0;78.0
26641;DHT22;14269;47.358;0.724;2023-02-22T08:14:30;11.0;78.0
26641;DHT22;14269;47.358;0.724;2023-02-22T08:17:02;11.0;78.0
26641;DHT22;14269;47.358;0.724;2023-02-22T08:19:34;11.0;79.0
26641;DHT22;14269;47.358;0.724;2023-02-22T08:22:05;11.0;79.0
26641;DHT22;14269;47.358;0.724;2023-02-22T08:24:37;11.0;79.0
26641;DHT22;14269;47.358;0.724;2023-02-22T08:27:09;11.0;80.0
26641;DHT22;14269;47.358;0.724;2023-02-22T08:29:40;11.0;79.0
26641;DHT22;14269;47.358;0.724;2023-02-22T08:32:12;11.0;79.0
26641;DHT22;14269;47.358;0.724;2023-02-22T08:34:44;11.0;80.0
26641;DHT22;14269;47.358;0.724;2023-02-22T08:37:16;11.0;80.0
26641;DHT22;14269;47.358;0.724;2023-02-22T08:39:57;12.0;79.0
26641;DHT22;14269;47.358;0.724;2023-02-22T08:42:28;11.0;79.0
26641;DHT22;14269;47.358;0.724;2023-02-22T08:45:00;12.0;79.0
26641;DHT22;14269;47.358;0.724;2023-02-22T08:47:33;11.0;79.0
26641;DHT22;14269;47.358;0.724;2023-02-22T08:50:04;11.0;80.0
26641;DHT22;14269;47.358;0.724;2023-02-22T08:52:45;11.0;80.0
26641;DHT22;14269;47.358;0.724;2023-02-22T08:55:19;11.0;80.0
26641;DHT22;14269;47.358;0.724;2023-02-22T08:58:00;11.0;80.0
26641;DHT22;14269;47.358;0.724;2023-02-22T09:00:42;11.0;80.0
26641;DHT22;14269;47.358;0.724;2023-02-22T09:03:22;11.0;80.0
26641;DHT22;14269;47.358;0.724;2023-02-22T09:05:54;11.0;80.0
26641;DHT22;14269;47.358;0.724;2023-02-22T09:08:25;11.0;80.0
26641;DHT22;14269;47.358;0.724;2023-02-22T09:10:57;11.0;80.0
26641;DHT22;14269;47.358;0.724;2023-02-22T09:13:29;11.0;80.0
26641;DHT22;14269;47.358;0.724;2023-02-22T09:16:00;11.0;80.0
26641;DHT22;14269;47.358;0.724;2023-02-22T09:18:32;11.0;80.0
26641;DHT22;14269;47.358;0.724;2023-02-22T09:21:04;11.0;80.0
26641;DHT22;14269;47.358;0.724;2023-02-22T09:23:35;11.0;80.0
26641;DHT22;14269;47.358;0.724;2023-02-22T09:26:07;11.0;80.0
26641;DHT22;14269;47.358;0.724;2023-02-22T09:28:39;12.0;80.0
26641;DHT22;14269;47.358;0.724;2023-02-22T09:31:11;12.0;80.0
26641;DHT22;14269;47.358;0.724;2023-02-22T09:33:42;12.0;80.0
26641;DHT22;14269;47.358;0.724;2023-02-22T09:36:24;12.0;80.0
26641;DHT22;14269;47.358;0.724;2023-02-22T09:38:57;12.0;80.0
26641;DHT22;14269;47.358;0.724;2023-02-22T09:41:43;12.0;80.0
26641;DHT22;14269;47.358;0.724;2023-02-22T09:44:23;12.0;80.0
26641;DHT22;14269;47.358;0.724;2023-02-22T09:47:02;12.0;80.0
26641;DHT22;14269;47.358;0.724;2023-02-22T09:49:52;12.0;80.0
26641;DHT22;14269;47.358;0.724;2023-02-22T09:52:38;12.0;80.0
26641;DHT22;14269;47.358;0.724;2023-02-22T09:55:27;11.0;80.0
26641;DHT22;14269;47.358;0.724;2023-02-22T09:58:18;11.0;80.0
26641;DHT22;14269;47.358;0.724;2023-02-22T10:00:54;12.0;80.0
26641;DHT22;14269;47.358;0.724;2023-02-22T10:03:35;12.0;80.0
26641;DHT22;14269;47.358;0.724;2023-02-22T10:06:16;11.0;80.0
26641;DHT22;14269;47.358;0.724;2023-02-22T10:08:59;11.0;80.0
26641;DHT22;14269;47.358;0.724;2023-02-22T10:11:48;11.0;80.0
26641;DHT22;14269;47.358;0.724;2023-02-22T10:14:37;11.0;81.0
26641;DHT22;14269;47.358;0.724;2023-02-22T10:17:28;12.0;81.0
26641;DHT22;14269;47.358;0.724;2023-02-22T10:20:16;12.0;80.0
26641;DHT22;14269;47.358;0.724;2023-02-22T10:23:03;12.0;80.0
26641;DHT22;14269;47.358;0.724;2023-02-22T10:25:50;12.0;80.0
26641;DHT22;14269;47.358;0.724;2023-02-22T10:28:33;12.0;81.0
26641;DHT22;14269;47.358;0.724;2023-02-22T10:31:18;12.0;81.0
26641;DHT22;14269;47.358;0.724;2023-02-22T10:33:56;12.0;80.0
26641;DHT22;14269;47.358;0.724;2023-02-22T10:36:33;12.0;80.0
26641;DHT22;14269;47.358;0.724;2023-02-22T10:39:22;12.0;80.0
26641;DHT22;14269;47.358;0.724;2023-02-22T10:41:58;12.0;80.0
26641;DHT22;14269;47.358;0.724;2023-02-22T10:44:39;12.0;79.0
26641;DHT22;14269;47.358;0.724;2023-02-22T10:47:20;12.0;79.0
26641;DHT22;14269;47.358;0.724;2023-02-22T10:49:55;13.0;79.0
26641;DHT22;14269;47.358;0.724;2023-02-22T10:52:33;12.0;79.0
26641;DHT22;14269;47.358;0.724;2023-02-22T10:55:11;12.0;79.0
26641;DHT22;14269;47.358;0.724;2023-02-22T10:57:49;12.0;79.0
26641;DHT22;14269;47.358;0.724;2023-02-22T11:00:30;12.0;79.0
26641;DHT22;14269;47.358;0.724;2023-02-22T11:03:16;12.0;79.0
26641;DHT22;14269;47.358;0.724;2023-02-22T11:05:52;12.0;78.0
26641;DHT22;14269;47.358;0.724;2023-02-22T11:08:26;12.0;78.0
26641;DHT22;14269;47.358;0.724;2023-02-22T11:11:21;12.0;78.0
26641;DHT22;14269;47.358;0.724;2023-02-22T11:13:59;12.0;79.0
26641;DHT22;14269;47.358;0.724;2023-02-22T11:16:41;12.0;78.0
26641;DHT22;14269;47.358;0.724;2023-02-22T11:19:23;12.0;78.0
26641;DHT22;14269;47.358;0.724;2023-02-22T11:22:09;13.0;78.0
26641;DHT22;14269;47.358;0.724;2023-02-22T11:24:46;13.0;78.0
26641;DHT22;14269;47.358;0.724;2023-02-22T11:27:32;12.0;78.0
26641;DHT22;14269;47.358;0.724;2023-02-22T11:30:23;12.0;79.0
26641;DHT22;14269;47.358;0.724;2023-02-22T11:33:17;12.0;79.0
26641;DHT22;14269;47.358;0.724;2023-02-22T11:36:05;12.0;79.0
26641;DHT22;14269;47.358;0.724;2023-02-22T11:38:53;12.0;80.0
26641;DHT22;14269;47.358;0.724;2023-02-22T11:41:26;12.0;80.0
26641;DHT22;14269;47.358;0.724;2023-02-22T11:44:19;12.0;79.0
26641;DHT22;14269;47.358;0.724;2023-02-22T11:47:01;12.0;79.0
26641;DHT22;14269;47.358;0.724;2023-02-22T11:49:43;12.0;79.0
26641;DHT22;14269;47.358;0.724;2023-02-22T11:52:28;12.0;78.0
26641;DHT22;14269;47.358;0.724;2023-02-22T11:55:12;12.0;78.0
26641;DHT22;14269;47.358;0.724;2023-02-22T11:58:04;12.0;78.0
26641;DHT22;14269;47.358;0.724;2023-02-22T12:00:54;13.0;78.0
26641;DHT22;14269;47.358;0.724;2023-02-22T12:03:48;12.0;78.0
26641;DHT22;14269;47.358;0.724;2023-02-22T12:06:40;12.0;78.0
26641;DHT22;14269;47.358;0.724;2023-02-22T12:09:33;12.0;78.0
26641;DHT22;14269;47.358;0.724;2023-02-22T12:12:13;12.0;78.0
26641;DHT22;14269;47.358;0.724;2023-02-22T12:15:03;12.0;79.0
26641;DHT22;14269;47.358;0.724;2023-02-22T12:17:46;12.0;79.0
26641;DHT22;14269;47.358;0.724;2023-02-22T12:20:24;12.0;80.0
26641;DHT22;14269;47.358;0.724;2023-02-22T12:23:11;12.0;80.0
26641;DHT22;14269;47.358;0.724;2023-02-22T12:25:53;12.0;80.0
26641;DHT22;14269;47.358;0.724;2023-02-22T12:28:38;12.0;81.0
26641;DHT22;14269;47.358;0.724;2023-02-22T12:31:22;12.0;81.0
26641;DHT22;14269;47.358;0.724;2023-02-22T12:34:05;12.0;80.0
26641;DHT22;14269;47.358;0.724;2023-02-22T12:36:46;12.0;80.0
26641;DHT22;14269;47.358;0.724;2023-02-22T12:39:32;12.0;80.0
26641;DHT22;14269;47.358;0.724;2023-02-22T12:42:17;12.0;80.0
26641;DHT22;14269;47.358;0.724;2023-02-22T12:45:00;12.0;80.0
26641;DHT22;14269;47.358;0.724;2023-02-22T12:47:46;12.0;79.0
26641;DHT22;14269;47.358;0.724;2023-02-22T12:50:23;13.0;79.0
26641;DHT22;14269;47.358;0.724;2023-02-22T12:53:11;13.0;79.0
26641;DHT22;14269;47.358;0.724;2023-02-22T12:55:47;13.0;79.0
26641;DHT22;14269;47.358;0.724;2023-02-22T12:58:31;13.0;79.0
26641;DHT22;14269;47.358;0.724;2023-02-22T13:01:12;13.0;78.0
26641;DHT22;14269;47.358;0.724;2023-02-22T13:03:49;12.0;78.0
26641;DHT22;14269;47.358;0.724;2023-02-22T13:06:34;13.0;78.0
26641;DHT22;14269;47.358;0.724;2023-02-22T13:09:39;13.0;79.0
26641;DHT22;14269;47.358;0.724;2023-02-22T13:12:18;13.0;79.0
26641;DHT22;14269;47.358;0.724;2023-02-22T13:15:03;13.0;78.0
26641;DHT22;14269;47.358;0.724;2023-02-22T13:17:44;13.0;78.0
26641;DHT22;14269;47.358;0.724;2023-02-22T13:20:23;13.0;78.0
26641;DHT22;14269;47.358;0.724;2023-02-22T13:23:05;13.0;79.0
26641;DHT22;14269;47.358;0.724;2023-02-22T13:25:47;13.0;79.0
26641;DHT22;14269;47.358;0.724;2023-02-22T13:28:32;13.0;79.0
26641;DHT22;14269;47.358;0.724;2023-02-22T13:31:22;13.0;78.0
26641;DHT22;14269;47.358;0.724;2023-02-22T13:34:09;13.0;79.0
26641;DHT22;14269;47.358;0.724;2023-02-22T13:37:04;13.0;78.0
26641;DHT22;14269;47.358;0.724;2023-02-22T13:39:57;13.0;78.0
26641;DHT22;14269;47.358;0.724;2023-02-22T13:42:43;13.0;78.0
26641;DHT22;14269;47.358;0.724;2023-02-22T13:45:42;13.0;78.0
26641;DHT22;14269;47.358;0.724;2023-02-22T13:49:13;13.0;78.0
26641;DHT22;14269;47.358;0.724;2023-02-22T13:51:51;13.0;78.0
26641;DHT22;14269;47.358;0.724;2023-02-22T13:54:38;13.0;78.0
26641;DHT22;14269;47.358;0.724;2023-02-22T13:57:19;13.0;77.0
26641;DHT22;14269;47.358;0.724;2023-02-22T14:00:58;13.0;77.0
26641;DHT22;14269;47.358;0.724;2023-02-22T14:03:39;12.0;77.0
26641;DHT22;14269;47.358;0.724;2023-02-22T14:06:36;13.0;76.0
26641;DHT22;14269;47.358;0.724;2023-02-22T14:09:39;12.0;76.0
26641;DHT22;14269;47.358;0.724;2023-02-22T14:12:47;12.0;76.0
26641;DHT22;14269;47.358;0.724;2023-02-22T14:15:26;12.0;76.0
26641;DHT22;14269;47.358;0.724;2023-02-22T14:18:15;12.0;76.0
26641;DHT22;14269;47.358;0.724;2023-02-22T14:21:03;12.0;76.0
26641;DHT22;14269;47.358;0.724;2023-02-22T14:23:42;12.0;76.0
26641;DHT22;14269;47.358;0.724;2023-02-22T14:26:26;12.0;76.0
26641;DHT22;14269;47.358;0.724;2023-02-22T14:29:15;12.0;76.0
26641;DHT22;14269;47.358;0.724;2023-02-22T14:32:00;13.0;76.0
26641;DHT22;14269;47.358;0.724;2023-02-22T14:34:42;13.0;75.0
26641;DHT22;14269;47.358;0.724;2023-02-22T14:37:24;13.0;76.0
26641;DHT22;14269;47.358;0.724;2023-02-22T14:40:16;13.0;75.0
26641;DHT22;14269;47.358;0.724;2023-02-22T14:43:00;13.0;76.0
26641;DHT22;14269;47.358;0.724;2023-02-22T14:45:38;13.0;76.0
26641;DHT22;14269;47.358;0.724;2023-02-22T14:48:21;13.0;76.0
26641;DHT22;14269;47.358;0.724;2023-02-22T14:51:01;13.0;75.0
26641;DHT22;14269;47.358;0.724;2023-02-22T14:53:43;13.0;75.0
26641;DHT22;14269;47.358;0.724;2023-02-22T14:56:24;12.0;75.0
26641;DHT22;14269;47.358;0.724;2023-02-22T14:59:14;12.0;76.0
26641;DHT22;14269;47.358;0.724;2023-02-22T15:02:04;12.0;76.0
26641;DHT22;14269;47.358;0.724;2023-02-22T15:04:40;12.0;76.0
26641;DHT22;14269;47.358;0.724;2023-02-22T15:07:23;12.0;76.0
26641;DHT22;14269;47.358;0.724;2023-02-22T15:10:10;13.0;76.0
26641;DHT22;14269;47.358;0.724;2023-02-22T15:13:12;12.0;75.0
26641;DHT22;14269;47.358;0.724;2023-02-22T15:15:46;12.0;76.0
26641;DHT22;14269;47.358;0.724;2023-02-22T15:18:31;12.0;75.0
26641;DHT22;14269;47.358;0.724;2023-02-22T15:21:10;12.0;75.0
26641;DHT22;14269;47.358;0.724;2023-02-22T15:23:53;12.0;75.0
26641;DHT22;14269;47.358;0.724;2023-02-22T15:26:35;12.0;76.0
26641;DHT22;14269;47.358;0.724;2023-02-22T15:29:17;12.0;75.0
26641;DHT22;14269;47.358;0.724;2023-02-22T15:31:55;12.0;75.0
26641;DHT22;14269;47.358;0.724;2023-02-22T15:34:29;12.0;76.0
26641;DHT22;14269;47.358;0.724;2023-02-22T15:37:19;12.0;75.0
26641;DHT22;14269;47.358;0.724;2023-02-22T15:40:05;12.0;76.0
26641;DHT22;14269;47.358;0.724;2023-02-22T15:42:45;12.0;76.0
26641;DHT22;14269;47.358;0.724;2023-02-22T15:45:24;12.0;76.0
26641;DHT22;14269;47.358;0.724;2023-02-22T15:47:57;12.0;75.0
26641;DHT22;14269;47.358;0.724;2023-02-22T15:50:38;12.0;75.0
26641;DHT22;14269;47.358;0.724;2023-02-22T15:53:25;13.0;75.0
26641;DHT22;14269;47.358;0.724;2023-02-22T15:56:05;13.0;75.0
26641;DHT22;14269;47.358;0.724;2023-02-22T15:58:45;12.0;75.0
26641;DHT22;14269;47.358;0.724;2023-02-22T16:01:25;12.0;75.0
26641;DHT22;14269;47.358;0.724;2023-02-22T16:03:57;12.0;75.0
26641;DHT22;14269;47.358;0.724;2023-02-22T16:06:39;12.0;75.0
26641;DHT22;14269;47.358;0.724;2023-02-22T16:09:22;12.0;76.0
26641;DHT22;14269;47.358;0.724;2023-02-22T16:12:22;12.0;76.0
26641;DHT22;14269;47.358;0.724;2023-02-22T16:15:15;12.0;76.0
26641;DHT22;14269;47.358;0.724;2023-02-22T16:17:55;12.0;76.0
26641;DHT22;14269;47.358;0.724;2023-02-22T16:20:30;12.0;76.0
26641;DHT22;14269;47.358;0.724;2023-02-22T16:23:25;12.0;76.0
26641;DHT22;14269;47.358;0.724;2023-02-22T16:26:04;12.0;75.0
26641;DHT22;14269;47.358;0.724;2023-02-22T16:28:46;13.0;75.0
26641;DHT22;14269;47.358;0.724;2023-02-22T16:31:26;13.0;75.0
26641;DHT22;14269;47.358;0.724;2023-02-22T16:34:07;13.0;75.0
26641;DHT22;14269;47.358;0.724;2023-02-22T16:36:50;13.0;75.0
26641;DHT22;14269;47.358;0.724;2023-02-22T16:39:31;13.0;75.0
26641;DHT22;14269;47.358;0.724;2023-02-22T16:42:18;13.0;75.0
26641;DHT22;14269;47.358;0.724;2023-02-22T16:45:03;12.0;75.0
26641;DHT22;14269;47.358;0.724;2023-02-22T16:47:34;12.0;75.0
26641;DHT22;14269;47.358;0.724;2023-02-22T16:50:07;12.0;75.0
26641;DHT22;14269;47.358;0.724;2023-02-22T16:52:39;13.0;75.0
26641;DHT22;14269;47.358;0.724;2023-02-22T16:55:20;12.0;75.0
26641;DHT22;14269;47.358;0.724;2023-02-22T16:57:55;12.0;75.0
26641;DHT22;14269;47.358;0.724;2023-02-22T17:00:33;12.0;75.0
26641;DHT22;14269;47.358;0.724;2023-02-22T17:03:05;12.0;75.0
26641;DHT22;14269;47.358;0.724;2023-02-22T17:05:37;12.0;75.0
26641;DHT22;14269;47.358;0.724;2023-02-22T17:08:08;12.0;75.0
26641;DHT22;14269;47.358;0.724;2023-02-22T17:10:39;12.0;75.0
26641;DHT22;14269;47.358;0.724;2023-02-22T17:13:11;12.0;75.0
26641;DHT22;14269;47.358;0.724;2023-02-22T17:15:43;12.0;75.0
26641;DHT22;14269;47.358;0.724;2023-02-22T17:18:16;12.0;75.0
26641;DHT22;14269;47.358;0.724;2023-02-22T17:20:56;12.0;75.0